createdAt,value
2022-12-14T00:00:02.220Z,5.00
2022-12-14T00:03:10.181Z,4.80
2022-12-14T00:05:58.026Z,4.50
2022-12-14T00:08:47.959Z,4.80
2022-12-14T00:11:35.736Z,4.30
2022-12-14T00:14:23.872Z,5.00
2022-12-14T00:17:11.494Z,4.80
2022-12-14T00:19:59.245Z,5.00
2022-12-14T00:22:47.046Z,5.00
2022-12-14T00:25:34.974Z,4.70
2022-12-14T00:28:26.567Z,4.90
2022-12-14T00:31:15.460Z,4.40
2022-12-14T00:34:03.156Z,4.40
2022-12-14T00:36:51.048Z,4.40
2022-12-14T00:39:38.811Z,3.90
2022-12-14T00:42:26.244Z,4.10
2022-12-14T00:45:13.904Z,4.30
2022-12-14T00:48:02.459Z,3.50
2022-12-14T00:50:52.046Z,4.40
2022-12-14T00:53:41.020Z,4.70
2022-12-14T00:56:29.258Z,3.90
2022-12-14T00:59:21.768Z,4.20
2022-12-14T01:02:13.934Z,4.10
2022-12-14T01:05:01.663Z,4.10
2022-12-14T01:07:49.176Z,4.20
2022-12-14T01:10:40.596Z,3.80
2022-12-14T01:13:28.813Z,3.90
2022-12-14T01:16:17.717Z,4.60
2022-12-14T01:19:06.028Z,6.00
2022-12-14T01:21:53.912Z,7.20
2022-12-14T01:24:44.618Z,5.00
2022-12-14T01:27:32.487Z,5.80
2022-12-14T01:30:20.386Z,7.10
2022-12-14T01:33:08.263Z,6.50
2022-12-14T01:35:55.680Z,5.60
2022-12-14T01:38:44.515Z,5.40
2022-12-14T01:42:01.594Z,5.50
2022-12-14T01:44:57.078Z,4.20
2022-12-14T01:47:51.870Z,4.80
2022-12-14T01:50:44.012Z,3.90
2022-12-14T01:53:31.809Z,3.90
2022-12-14T01:56:19.836Z,5.10
2022-12-14T01:59:16.399Z,4.90
2022-12-14T02:02:08.090Z,5.30
2022-12-14T02:05:01.764Z,4.40
2022-12-14T02:07:52.992Z,5.40
2022-12-14T02:10:41.422Z,5.10
2022-12-14T02:13:35.542Z,4.30
2022-12-14T02:16:23.596Z,4.70
2022-12-14T02:19:11.165Z,4.50
2022-12-14T02:22:35.754Z,5.70
2022-12-14T02:25:58.469Z,5.50
2022-12-14T02:29:17.128Z,5.60
2022-12-14T02:32:36.667Z,6.20
2022-12-14T02:35:46.948Z,5.90
2022-12-14T02:38:49.800Z,4.10
2022-12-14T02:41:49.294Z,4.90
2022-12-14T02:44:39.981Z,5.60
2022-12-14T02:48:02.900Z,3.80
2022-12-14T02:51:25.002Z,6.90
2022-12-14T02:54:32.385Z,5.20
2022-12-14T02:57:27.699Z,4.60
2022-12-14T03:00:16.009Z,4.20
2022-12-14T03:03:06.023Z,4.30
2022-12-14T03:06:14.926Z,4.80
2022-12-14T03:09:17.652Z,5.40
2022-12-14T03:12:11.633Z,4.30
2022-12-14T03:15:00.787Z,5.60
2022-12-14T03:17:53.888Z,5.30
2022-12-14T03:20:45.017Z,5.50
2022-12-14T03:23:37.535Z,5.20
2022-12-14T03:26:41.701Z,4.40
2022-12-14T03:29:42.063Z,4.20
2022-12-14T03:32:32.569Z,4.30
2022-12-14T03:35:29.184Z,5.70
2022-12-14T03:38:27.163Z,5.60
2022-12-14T03:41:18.594Z,5.50
2022-12-14T03:44:15.696Z,5.10
2022-12-14T03:47:15.319Z,4.20
2022-12-14T03:50:17.599Z,3.80
2022-12-14T03:53:34.167Z,4.80
2022-12-14T03:56:24.554Z,4.20
2022-12-14T03:59:39.906Z,5.40
2022-12-14T04:02:41.216Z,5.40
2022-12-14T04:05:41.714Z,4.20
2022-12-14T04:08:53.141Z,3.90
2022-12-14T04:12:08.322Z,4.20
2022-12-14T04:15:23.229Z,4.30
2022-12-14T04:18:37.501Z,5.30
2022-12-14T04:21:59.264Z,5.10
2022-12-14T04:25:15.479Z,5.10
2022-12-14T04:28:31.929Z,7.00
2022-12-14T04:31:23.866Z,5.80
2022-12-14T04:34:15.524Z,6.10
2022-12-14T04:37:10.802Z,5.00
2022-12-14T04:40:36.483Z,5.20
2022-12-14T04:43:30.253Z,4.90
2022-12-14T04:46:23.513Z,4.80
2022-12-14T04:49:16.898Z,5.70
2022-12-14T04:52:23.361Z,6.40
2022-12-14T04:55:56.968Z,5.20
2022-12-14T04:58:44.628Z,5.10
2022-12-14T05:01:41.112Z,5.90
2022-12-14T05:05:19.075Z,5.80
2022-12-14T05:08:45.945Z,6.20
2022-12-14T05:15:02.896Z,5.90
2022-12-14T05:17:50.923Z,6.10
2022-12-14T05:20:38.367Z,6.00
2022-12-14T05:23:26.019Z,5.90
2022-12-14T05:26:14.001Z,6.30
2022-12-14T05:29:01.635Z,5.40
2022-12-14T05:31:51.000Z,5.50
2022-12-14T05:34:39.055Z,6.30
2022-12-14T05:37:26.699Z,8.00
2022-12-14T05:40:14.656Z,7.60
2022-12-14T05:43:12.325Z,6.90
2022-12-14T05:46:04.962Z,7.10
2022-12-14T05:48:52.700Z,8.30
2022-12-14T05:51:40.703Z,7.20
2022-12-14T05:54:28.478Z,8.10
2022-12-14T05:57:16.266Z,6.60
2022-12-14T06:00:06.547Z,8.80
2022-12-14T06:02:55.678Z,8.30
2022-12-14T06:05:43.230Z,7.50
2022-12-14T06:08:33.943Z,8.40
2022-12-14T06:11:23.802Z,8.10
2022-12-14T06:14:12.647Z,6.90
2022-12-14T06:17:00.414Z,8.40
2022-12-14T06:19:50.044Z,6.80
2022-12-14T06:22:42.785Z,9.20
2022-12-14T06:25:33.264Z,7.30
2022-12-14T06:28:20.850Z,10.70
2022-12-14T06:31:18.134Z,8.70
2022-12-14T06:34:06.417Z,8.00
2022-12-14T06:36:54.236Z,9.90
2022-12-14T06:39:42.017Z,8.70
2022-12-14T06:42:31.455Z,9.70
2022-12-14T06:45:18.867Z,9.60
2022-12-14T06:48:07.039Z,5.30
2022-12-14T06:51:04.525Z,6.20
2022-12-14T06:53:57.523Z,8.90
2022-12-14T06:56:47.404Z,9.00
2022-12-14T06:59:35.262Z,7.70
2022-12-14T07:02:22.968Z,9.90
2022-12-14T07:05:10.855Z,7.90
2022-12-14T07:07:58.353Z,8.60
2022-12-14T07:10:46.044Z,8.50
2022-12-14T07:13:33.808Z,8.70
2022-12-14T07:16:26.561Z,9.30
2022-12-14T07:19:14.313Z,8.80
2022-12-14T07:22:04.314Z,8.00
2022-12-14T07:24:52.040Z,7.90
2022-12-14T07:27:40.001Z,7.90
2022-12-14T07:30:27.586Z,9.00
2022-12-14T07:33:15.215Z,8.50
2022-12-14T07:36:10.715Z,7.30
2022-12-14T07:38:58.396Z,7.90
2022-12-14T07:41:49.019Z,8.80
2022-12-14T07:44:41.567Z,8.90
2022-12-14T07:47:31.923Z,8.90
2022-12-14T07:50:19.394Z,9.30
2022-12-14T07:53:06.990Z,9.20
2022-12-14T07:55:54.943Z,8.70
2022-12-14T07:58:42.510Z,7.20
2022-12-14T08:01:36.069Z,8.30
2022-12-14T08:04:24.100Z,10.20
2022-12-14T08:07:11.922Z,10.00
2022-12-14T08:09:59.721Z,10.10
2022-12-14T08:12:50.442Z,9.10
2022-12-14T08:15:38.681Z,8.00
2022-12-14T08:18:26.380Z,7.30
2022-12-14T08:21:20.991Z,5.80
2022-12-14T08:24:12.433Z,7.40
2022-12-14T08:26:59.844Z,7.20
2022-12-14T08:29:47.244Z,8.60
2022-12-14T08:32:35.056Z,8.10
2022-12-14T08:35:22.993Z,8.00
2022-12-14T08:38:10.539Z,8.10
2022-12-14T08:41:06.236Z,8.20
2022-12-14T08:44:00.817Z,8.50
2022-12-14T08:46:48.582Z,9.10
2022-12-14T08:49:36.332Z,8.20
2022-12-14T08:52:23.703Z,9.00
2022-12-14T08:55:11.564Z,9.10
2022-12-14T08:57:59.564Z,8.70
2022-12-14T09:00:47.010Z,9.50
2022-12-14T09:03:35.519Z,9.80
2022-12-14T09:06:29.348Z,8.80
2022-12-14T09:09:17.166Z,9.90
2022-12-14T09:12:07.658Z,9.80
2022-12-14T09:14:55.331Z,9.70
2022-12-14T09:17:42.936Z,9.60
2022-12-14T09:20:30.395Z,10.30
2022-12-14T09:23:18.107Z,9.90
2022-12-14T09:26:27.604Z,9.30
2022-12-14T09:29:17.675Z,9.40
2022-12-14T09:32:05.502Z,10.00
2022-12-14T09:34:53.535Z,10.30
2022-12-14T09:37:41.384Z,9.70
2022-12-14T09:40:31.585Z,10.50
2022-12-14T09:43:44.067Z,9.50
2022-12-14T09:47:19.333Z,10.50
2022-12-14T09:50:18.421Z,9.30
2022-12-14T09:53:13.171Z,10.90
2022-12-14T09:56:00.988Z,11.80
2022-12-14T09:58:59.550Z,12.70
2022-12-14T10:02:32.579Z,11.80
2022-12-14T10:05:57.226Z,12.80
2022-12-14T10:08:59.703Z,12.90
2022-12-14T10:12:00.406Z,13.90
2022-12-14T10:15:08.981Z,15.60
2022-12-14T10:19:02.951Z,13.00
2022-12-14T10:22:12.490Z,14.20
2022-12-14T10:25:25.057Z,14.20
2022-12-14T10:28:30.794Z,13.90
2022-12-14T10:31:41.152Z,13.00
2022-12-14T10:34:32.562Z,13.80
2022-12-14T10:37:27.051Z,13.60
2022-12-14T10:40:34.701Z,12.50
2022-12-14T10:43:42.657Z,13.40
2022-12-14T10:47:01.310Z,13.70
2022-12-14T10:50:22.688Z,13.40
2022-12-14T10:53:19.828Z,12.00
2022-12-14T10:56:19.173Z,9.70
2022-12-14T10:59:22.260Z,10.30
2022-12-14T11:02:21.446Z,10.60
2022-12-14T11:05:45.454Z,10.60
2022-12-14T11:08:48.092Z,10.40
2022-12-14T11:11:36.365Z,9.60
2022-12-14T11:14:24.751Z,9.20
2022-12-14T11:17:43.479Z,8.10
2022-12-14T11:20:33.666Z,9.70
2022-12-14T11:23:30.612Z,11.00
2022-12-14T11:26:38.054Z,9.50
2022-12-14T11:29:34.291Z,12.10
2022-12-14T11:32:25.708Z,11.40
2022-12-14T11:35:19.546Z,10.80
2022-12-14T11:38:15.814Z,10.50
2022-12-14T11:41:10.724Z,9.40
2022-12-14T11:44:16.255Z,10.70
2022-12-14T11:47:14.148Z,12.50
2022-12-14T11:50:01.913Z,10.90
2022-12-14T11:52:49.403Z,11.10
2022-12-14T11:55:40.750Z,11.20
2022-12-14T11:58:34.067Z,11.50
2022-12-14T12:01:26.820Z,11.50
2022-12-14T12:04:17.583Z,10.10
2022-12-14T12:07:55.010Z,8.60
2022-12-14T12:10:50.162Z,9.90
2022-12-14T12:13:42.384Z,12.90
2022-12-14T12:16:32.962Z,9.50
2022-12-14T12:19:34.958Z,11.10
2022-12-14T12:22:22.626Z,10.70
2022-12-14T12:25:36.802Z,12.50
2022-12-14T12:28:36.530Z,11.50
2022-12-14T12:31:35.301Z,10.40
2022-12-14T12:35:12.471Z,8.60
2022-12-14T12:38:37.291Z,9.90
2022-12-14T12:41:57.153Z,10.30
2022-12-14T12:44:55.553Z,10.30
2022-12-14T12:48:13.427Z,10.20
2022-12-14T12:51:06.349Z,8.80
2022-12-14T12:54:08.893Z,11.70
2022-12-14T12:57:00.456Z,11.40
2022-12-14T12:59:52.746Z,9.00
2022-12-14T13:02:50.366Z,10.60
2022-12-14T13:05:46.773Z,10.70
2022-12-14T13:08:41.120Z,11.70
2022-12-14T13:11:35.511Z,10.10
2022-12-14T13:14:43.149Z,8.70
2022-12-14T13:17:45.766Z,7.20
2022-12-14T13:20:37.093Z,7.40
2022-12-14T13:23:45.431Z,7.60
2022-12-14T13:27:17.110Z,7.50
2022-12-14T13:30:43.483Z,8.00
2022-12-14T13:33:58.943Z,7.20
2022-12-14T13:37:10.457Z,9.40
2022-12-14T13:40:23.566Z,6.80
2022-12-14T13:43:56.578Z,7.50
2022-12-14T13:46:44.455Z,8.20
2022-12-14T13:49:33.553Z,7.60
2022-12-14T13:52:38.780Z,6.70
2022-12-14T13:55:29.441Z,8.60
2022-12-14T13:58:42.647Z,6.70
2022-12-14T14:01:48.981Z,8.10
2022-12-14T14:04:36.611Z,8.70
2022-12-14T14:07:24.360Z,9.50
2022-12-14T14:10:28.551Z,6.60
2022-12-14T14:13:28.227Z,8.50
2022-12-14T14:16:37.660Z,8.80
2022-12-14T14:19:28.670Z,10.40
2022-12-14T14:22:24.177Z,10.50
2022-12-14T14:25:34.430Z,11.30
2022-12-14T14:28:30.179Z,9.20
2022-12-14T14:31:17.968Z,10.10
2022-12-14T14:34:05.785Z,9.70
2022-12-14T14:36:54.575Z,8.10
2022-12-14T14:40:04.849Z,9.30
2022-12-14T14:43:06.864Z,10.90
2022-12-14T14:46:01.415Z,10.60
2022-12-14T14:48:54.769Z,11.40
2022-12-14T14:51:42.887Z,10.90
2022-12-14T14:55:07.030Z,12.70
2022-12-14T14:58:05.588Z,12.30
2022-12-14T15:01:03.005Z,10.00
2022-12-14T15:04:15.698Z,10.70
2022-12-14T15:07:15.429Z,9.10
2022-12-14T15:10:31.165Z,14.50
2022-12-14T15:13:25.102Z,11.90
2022-12-14T15:16:33.686Z,10.40
2022-12-14T15:19:33.615Z,13.60
2022-12-14T15:22:26.266Z,12.70
2022-12-14T15:25:29.720Z,10.70
2022-12-14T15:28:23.064Z,9.70
2022-12-14T15:31:11.010Z,9.40
2022-12-14T15:34:00.293Z,9.80
2022-12-14T15:36:48.980Z,10.50
2022-12-14T15:39:40.305Z,12.10
2022-12-14T15:42:28.330Z,12.20
2022-12-14T15:45:25.457Z,13.10
2022-12-14T15:48:36.426Z,12.50
2022-12-14T15:51:33.029Z,7.60
2022-12-14T15:54:24.960Z,10.10
2022-12-14T15:57:20.033Z,12.00
2022-12-14T16:00:11.689Z,11.30
2022-12-14T16:03:01.496Z,11.00
2022-12-14T16:05:49.986Z,12.10
2022-12-14T16:08:47.949Z,12.10
2022-12-14T16:11:46.839Z,12.40
2022-12-14T16:14:54.779Z,11.20
2022-12-14T16:17:44.593Z,8.60
2022-12-14T16:20:38.444Z,9.20
2022-12-14T16:23:40.454Z,9.30
2022-12-14T16:26:38.639Z,15.10
2022-12-14T16:29:34.021Z,9.10
2022-12-14T16:32:23.469Z,13.50
2022-12-14T16:35:33.054Z,14.70
2022-12-14T16:38:20.946Z,10.30
2022-12-14T16:41:09.598Z,11.70
2022-12-14T16:44:00.681Z,15.70
2022-12-14T16:47:03.132Z,10.10
2022-12-14T16:49:52.097Z,15.80
2022-12-14T16:52:40.802Z,12.50
2022-12-14T16:55:29.057Z,14.70
2022-12-14T16:58:18.694Z,14.00
2022-12-14T17:01:09.426Z,14.10
2022-12-14T17:04:06.952Z,15.70
2022-12-14T17:06:57.055Z,12.60
2022-12-14T17:09:45.382Z,12.50
2022-12-14T17:12:33.448Z,14.40
2022-12-14T17:15:24.945Z,15.60
2022-12-14T17:18:13.917Z,16.20
2022-12-14T17:21:02.883Z,13.00
2022-12-14T17:23:51.470Z,13.20
2022-12-14T17:26:39.411Z,13.20
2022-12-14T17:29:30.260Z,13.50
2022-12-14T17:32:19.245Z,13.80
2022-12-14T17:35:15.494Z,11.20
2022-12-14T17:38:03.310Z,17.10
2022-12-14T17:40:54.178Z,14.40
2022-12-14T17:43:49.887Z,14.20
2022-12-14T17:46:43.919Z,15.20
2022-12-14T17:49:35.595Z,16.00
2022-12-14T17:52:30.444Z,16.40
2022-12-14T17:55:25.583Z,12.40
2022-12-14T17:58:14.104Z,16.10
2022-12-14T18:01:03.606Z,14.10
2022-12-14T18:03:53.042Z,14.20
2022-12-14T18:06:41.701Z,18.80
2022-12-14T18:09:29.589Z,15.10
2022-12-14T18:12:25.264Z,18.50
2022-12-14T18:15:34.965Z,16.40
2022-12-14T18:18:27.894Z,11.40
2022-12-14T18:21:28.822Z,17.80
2022-12-14T18:24:22.696Z,12.00
2022-12-14T18:27:13.839Z,16.60
2022-12-14T18:30:01.836Z,17.00
2022-12-14T18:32:50.404Z,21.30
2022-12-14T18:35:38.250Z,20.10
2022-12-14T18:38:26.894Z,16.80
2022-12-14T18:41:21.089Z,21.20
2022-12-14T18:44:11.319Z,15.90
2022-12-14T18:47:14.704Z,15.60
2022-12-14T18:50:09.817Z,17.20
2022-12-14T18:53:00.482Z,13.50
2022-12-14T18:55:49.737Z,21.30
2022-12-14T18:58:40.522Z,22.70
2022-12-14T19:01:28.218Z,21.30
2022-12-14T19:04:16.035Z,21.60
2022-12-14T19:07:04.279Z,21.20
2022-12-14T19:09:52.063Z,22.40
2022-12-14T19:12:39.830Z,21.90
2022-12-14T19:15:34.082Z,20.80
2022-12-14T19:18:22.034Z,17.60
2022-12-14T19:21:10.152Z,20.50
2022-12-14T19:23:59.710Z,15.30
2022-12-14T19:26:49.524Z,20.20
2022-12-14T19:29:37.710Z,18.80
2022-12-14T19:32:26.220Z,21.40
2022-12-14T19:35:16.007Z,19.70
2022-12-14T19:38:06.685Z,17.50
2022-12-14T19:41:06.319Z,15.10
2022-12-14T19:43:58.072Z,22.30
2022-12-14T19:46:45.804Z,17.10
2022-12-14T19:49:34.030Z,21.90
2022-12-14T19:52:29.528Z,18.70
2022-12-14T19:55:17.773Z,22.70
2022-12-14T19:58:05.676Z,16.00
2022-12-14T20:00:53.542Z,15.80
2022-12-14T20:03:42.088Z,16.70
2022-12-14T20:06:30.073Z,16.10
2022-12-14T20:09:18.932Z,18.10
2022-12-14T20:12:10.389Z,14.10
2022-12-14T20:14:58.384Z,16.50
2022-12-14T20:17:46.155Z,21.60
2022-12-14T20:20:34.542Z,21.30
2022-12-14T20:23:22.158Z,18.60
2022-12-14T20:26:21.022Z,19.20
2022-12-14T20:29:08.969Z,17.10
2022-12-14T20:31:56.924Z,22.30
2022-12-14T20:34:45.042Z,16.30
2022-12-14T20:37:32.863Z,17.80
2022-12-14T20:40:20.658Z,16.60
2022-12-14T20:43:08.155Z,14.10
2022-12-14T20:45:55.944Z,20.50
2022-12-14T20:48:47.505Z,22.30
2022-12-14T20:51:38.732Z,21.50
2022-12-14T20:54:27.950Z,19.00
2022-12-14T20:57:15.863Z,13.20
2022-12-14T21:00:06.667Z,23.40
2022-12-14T21:02:54.722Z,22.80
2022-12-14T21:05:43.433Z,17.60
2022-12-14T21:08:31.856Z,15.00
2022-12-14T21:11:38.582Z,15.80
2022-12-14T21:14:36.246Z,19.80
2022-12-14T21:17:28.804Z,17.20
2022-12-14T21:20:16.537Z,21.90
2022-12-14T21:23:04.318Z,21.90
2022-12-14T21:25:52.109Z,23.30
2022-12-14T21:28:39.647Z,16.40
2022-12-14T21:31:27.423Z,23.20
2022-12-14T21:34:18.668Z,20.10
2022-12-14T21:37:06.267Z,23.60
2022-12-14T21:39:55.600Z,17.70
2022-12-14T21:42:43.297Z,19.30
2022-12-14T21:45:30.984Z,18.10
2022-12-14T21:48:18.998Z,20.90
2022-12-14T21:51:08.959Z,24.60
2022-12-14T21:53:59.827Z,26.70
2022-12-14T21:57:06.020Z,24.90
2022-12-14T21:59:53.748Z,19.80
2022-12-14T22:02:42.722Z,21.10
2022-12-14T22:05:30.752Z,19.20
2022-12-14T22:08:19.085Z,14.50
2022-12-14T22:11:06.578Z,22.60
2022-12-14T22:13:54.569Z,21.10
2022-12-14T22:16:43.267Z,20.10
2022-12-14T22:19:31.709Z,18.60
2022-12-14T22:22:19.606Z,19.60
2022-12-14T22:25:08.192Z,18.30
2022-12-14T22:27:56.007Z,20.20
2022-12-14T22:30:43.941Z,25.60
2022-12-14T22:33:32.417Z,20.80
2022-12-14T22:36:23.346Z,15.90
2022-12-14T22:39:11.102Z,19.40
2022-12-14T22:41:58.704Z,20.80
2022-12-14T22:44:48.958Z,21.10
2022-12-14T22:47:36.284Z,17.60
2022-12-14T22:50:24.176Z,20.20
2022-12-14T22:53:13.057Z,15.80
2022-12-14T22:56:38.647Z,20.90
2022-12-14T22:59:41.941Z,19.50
2022-12-14T23:02:30.801Z,21.50
2022-12-14T23:05:19.008Z,19.30
2022-12-14T23:08:06.794Z,18.30
2022-12-14T23:11:13.183Z,15.30
2022-12-14T23:14:19.679Z,15.90
2022-12-14T23:17:26.295Z,19.10
2022-12-14T23:20:32.595Z,14.50
2022-12-14T23:23:39.197Z,20.30
2022-12-14T23:26:46.370Z,24.70
2022-12-14T23:29:52.609Z,17.90
2022-12-14T23:32:59.383Z,14.90
2022-12-14T23:36:05.358Z,18.20
2022-12-14T23:39:11.346Z,18.70
2022-12-14T23:42:17.622Z,18.60
2022-12-14T23:45:25.277Z,18.70
2022-12-14T23:48:32.674Z,17.00
2022-12-14T23:51:39.057Z,21.50
2022-12-14T23:54:45.401Z,20.00
2022-12-14T23:57:51.882Z,20.50
